Time,TemperatureF,DewpointF,PressureIn,WindDirection,WindDirectionDegrees,WindSpeedMPH,WindSpeedGustMPH,Humidity,HourlyPrecipIn,Conditions,Clouds,dailyrainin,SoftwareType,DateUTC
2013-04-18 00:02:00,28.3,9.1,30.16,North,0,1.3,2.0,44,0.00,,,0.00,WUHU216HW,2013-04-18 07:02:00,
2013-04-18 00:07:00,28.1,8.9,30.16,NNE,23,1.1,2.0,44,0.00,,,0.00,WUHU216HW,2013-04-18 07:07:00,
2013-04-18 00:12:00,27.7,8.6,30.17,North,0,1.6,2.0,44,0.00,,,0.00,WUHU216HW,2013-04-18 07:12:00,
2013-04-18 00:17:00,27.5,8.9,30.17,NNE,23,1.3,2.5,45,0.00,,,0.00,WUHU216HW,2013-04-18 07:17:00,
2013-04-18 00:22:00,27.5,9.4,30.17,North,0,1.8,2.5,46,0.00,,,0.00,WUHU216HW,2013-04-18 07:22:00,
2013-04-18 00:27:00,27.4,9.2,30.16,North,0,1.6,2.2,46,0.00,,,0.00,WUHU216HW,2013-04-18 07:27:00,
2013-04-18 00:32:00,27.4,9.2,30.16,NNW,338,1.8,2.5,46,0.00,,,0.00,WUHU216HW,2013-04-18 07:32:00,
2013-04-18 00:37:00,27.2,9.6,30.16,North,0,1.1,2.5,47,0.00,,,0.00,WUHU216HW,2013-04-18 07:37:00,
2013-04-18 00:42:00,27.0,9.4,30.16,North,0,1.1,2.0,47,0.00,,,0.00,WUHU216HW,2013-04-18 07:42:00,
2013-04-18 00:47:00,26.8,9.6,30.16,North,0,2.5,2.5,48,0.00,,,0.00,WUHU216HW,2013-04-18 07:47:00,
2013-04-18 00:52:00,26.5,9.3,30.16,North,0,1.1,2.5,48,0.00,,,0.00,WUHU216HW,2013-04-18 07:52:00,
2013-04-18 00:57:00,26.3,9.2,30.16,NE,45,0.4,2.5,48,0.00,,,0.00,WUHU216HW,2013-04-18 07:57:00,
2013-04-18 01:02:00,26.3,9.2,30.16,SE,135,1.1,2.5,48,0.00,,,0.00,WUHU216HW,2013-04-18 08:02:00,
2013-04-18 01:07:00,26.1,9.0,30.16,SSE,158,0.9,1.1,48,0.00,,,0.00,WUHU216HW,2013-04-18 08:07:00,
2013-04-18 01:12:00,25.7,8.6,30.16,SSE,158,0.9,1.1,48,0.00,,,0.00,WUHU216HW,2013-04-18 08:12:00,
2013-04-18 01:17:00,25.6,8.5,30.16,South,180,0.4,1.1,48,0.00,,,0.00,WUHU216HW,2013-04-18 08:17:00,
2013-04-18 01:22:00,25.0,8.0,30.16,South,180,0.9,1.1,48,0.00,,,0.00,WUHU216HW,2013-04-18 08:22:00,
2013-04-18 01:27:00,24.7,7.7,30.16,South,180,2.0,2.0,48,0.00,,,0.00,WUHU216HW,2013-04-18 08:27:00,
2013-04-18 01:32:00,24.5,7.6,30.17,South,180,1.1,2.5,48,0.00,,,0.00,WUHU216HW,2013-04-18 08:32:00,
2013-04-18 01:37:00,24.1,7.2,30.16,SSE,158,0.2,2.5,48,0.00,,,0.00,WUHU216HW,2013-04-18 08:37:00,
2013-04-18 01:42:00,24.1,7.7,30.16,South,180,1.1,1.6,49,0.00,,,0.00,WUHU216HW,2013-04-18 08:42:00,
2013-04-18 01:47:00,23.8,7.4,30.16,South,180,0.7,1.6,49,0.00,,,0.00,WUHU216HW,2013-04-18 08:47:00,
2013-04-18 01:52:00,23.6,7.2,30.16,South,180,1.8,1.8,49,0.00,,,0.00,WUHU216HW,2013-04-18 08:52:00,
2013-04-18 01:57:00,23.4,7.6,30.16,South,180,1.6,2.0,50,0.00,,,0.00,WUHU216HW,2013-04-18 08:57:00,
2013-04-18 02:02:00,23.0,7.2,30.16,SSE,158,0.7,2.0,50,0.00,,,0.00,WUHU216HW,2013-04-18 09:02:00,
2013-04-18 02:07:00,22.9,7.0,30.16,SSW,203,0.7,1.8,50,0.00,,,0.00,WUHU216HW,2013-04-18 09:07:00,
2013-04-18 02:12:00,22.7,6.8,30.16,SSW,203,0.4,1.8,50,0.00,,,0.00,WUHU216HW,2013-04-18 09:12:00,
2013-04-18 02:17:00,22.5,7.0,30.16,SSE,158,1.1,1.8,51,0.00,,,0.00,WUHU216HW,2013-04-18 09:17:00,
2013-04-18 02:22:00,22.1,6.8,30.16,South,180,1.8,2.0,51,0.00,,,0.00,WUHU216HW,2013-04-18 09:22:00,
2013-04-18 02:27:00,22.0,6.6,30.16,South,180,1.1,2.7,51,0.00,,,0.00,WUHU216HW,2013-04-18 09:27:00,
2013-04-18 02:32:00,21.6,6.6,30.16,South,180,1.1,2.7,52,0.00,,,0.00,WUHU216HW,2013-04-18 09:32:00,
2013-04-18 02:37:00,21.2,6.2,30.16,SSE,158,0.7,1.6,52,0.00,,,0.00,WUHU216HW,2013-04-18 09:37:00,
2013-04-18 02:42:00,21.2,6.2,30.15,SSW,203,0.4,1.6,52,0.00,,,0.00,WUHU216HW,2013-04-18 09:42:00,
2013-04-18 02:47:00,21.1,6.5,30.16,ENE,68,0.9,0.9,53,0.00,,,0.00,WUHU216HW,2013-04-18 09:47:00,
2013-04-18 02:52:00,20.9,6.3,30.15,SSE,158,1.8,4.0,53,0.00,,,0.00,WUHU216HW,2013-04-18 09:52:00,
2013-04-18 02:57:00,21.1,6.5,30.16,North,0,1.1,4.0,53,0.00,,,0.00,WUHU216HW,2013-04-18 09:57:00,
2013-04-18 03:02:00,21.2,7.0,30.15,ENE,68,1.8,4.0,54,0.00,,,0.00,WUHU216HW,2013-04-18 10:02:00,
2013-04-18 03:07:00,21.8,8.0,30.16,NE,45,1.8,5.4,55,0.00,,,0.00,WUHU216HW,2013-04-18 10:07:00,
2013-04-18 03:12:00,22.5,8.3,30.16,ENE,68,1.8,5.4,54,0.00,,,0.00,WUHU216HW,2013-04-18 10:12:00,
2013-04-18 03:17:00,23.0,8.4,30.15,ESE,113,0.9,3.8,53,0.00,,,0.00,WUHU216HW,2013-04-18 10:17:00,
2013-04-18 03:22:00,23.4,8.7,30.16,ESE,113,1.1,4.5,53,0.00,,,0.00,WUHU216HW,2013-04-18 10:22:00,
2013-04-18 03:27:00,23.8,8.6,30.16,ENE,68,0.9,4.5,52,0.00,,,0.00,WUHU216HW,2013-04-18 10:27:00,
2013-04-18 03:32:00,23.9,8.4,30.15,ENE,68,1.8,4.5,51,0.00,,,0.00,WUHU216HW,2013-04-18 10:32:00,
2013-04-18 03:37:00,24.1,8.6,30.16,East,90,2.5,6.0,51,0.00,,,0.00,WUHU216HW,2013-04-18 10:37:00,
2013-04-18 03:42:00,24.5,8.9,30.16,East,90,3.4,6.5,51,0.00,,,0.00,WUHU216HW,2013-04-18 10:42:00,
2013-04-18 03:47:00,24.5,8.5,30.16,ESE,113,4.7,6.5,50,0.00,,,0.00,WUHU216HW,2013-04-18 10:47:00,
2013-04-18 03:52:00,24.5,8.5,30.15,SSE,158,4.0,5.4,50,0.00,,,0.00,WUHU216HW,2013-04-18 10:52:00,
2013-04-18 03:57:00,24.5,8.5,30.15,SE,135,2.5,6.3,50,0.00,,,0.00,WUHU216HW,2013-04-18 10:57:00,
2013-04-18 04:02:00,24.5,8.0,30.15,ESE,113,2.9,6.3,49,0.00,,,0.00,WUHU216HW,2013-04-18 11:02:00,
2013-04-18 04:07:00,24.5,8.0,30.15,East,90,5.1,6.0,49,0.00,,,0.00,WUHU216HW,2013-04-18 11:07:00,
2013-04-18 04:12:00,24.7,8.2,30.15,ENE,68,1.8,5.1,49,0.00,,,0.00,WUHU216HW,2013-04-18 11:12:00,
2013-04-18 04:17:00,24.8,8.4,30.15,East,90,4.7,6.3,49,0.00,,,0.00,WUHU216HW,2013-04-18 11:17:00,
2013-04-18 04:22:00,24.8,7.8,30.15,East,90,5.4,6.9,48,0.00,,,0.00,WUHU216HW,2013-04-18 11:22:00,
2013-04-18 04:27:00,25.0,8.0,30.16,East,90,2.0,6.9,48,0.00,,,0.00,WUHU216HW,2013-04-18 11:27:00,
2013-04-18 04:32:00,25.2,8.2,30.16,SE,135,9.2,11.4,48,0.00,,,0.00,WUHU216HW,2013-04-18 11:32:00,
2013-04-18 04:37:00,25.2,8.2,30.16,ESE,113,5.8,11.4,48,0.00,,,0.00,WUHU216HW,2013-04-18 11:37:00,
2013-04-18 04:42:00,25.4,8.4,30.16,ESE,113,4.7,9.6,48,0.00,,,0.00,WUHU216HW,2013-04-18 11:42:00,
2013-04-18 04:47:00,25.2,8.2,30.16,South,180,5.6,7.8,48,0.00,,,0.00,WUHU216HW,2013-04-18 11:47:00,
2013-04-18 04:52:00,25.0,8.0,30.16,SSE,158,6.5,9.8,48,0.00,,,0.00,WUHU216HW,2013-04-18 11:52:00,
2013-04-18 04:57:00,25.2,8.2,30.16,SE,135,6.0,9.8,48,0.00,,,0.00,WUHU216HW,2013-04-18 11:57:00,
2013-04-18 05:02:00,25.2,7.7,30.16,ESE,113,7.4,8.9,47,0.00,,,0.00,WUHU216HW,2013-04-18 12:02:00,
2013-04-18 05:07:00,25.2,7.7,30.16,ESE,113,4.7,8.9,47,0.00,,,0.00,WUHU216HW,2013-04-18 12:07:00,
2013-04-18 05:12:00,25.0,7.6,30.16,ESE,113,5.4,7.4,47,0.00,,,0.00,WUHU216HW,2013-04-18 12:12:00,
2013-04-18 05:17:00,24.8,7.4,30.16,SSE,158,3.4,7.4,47,0.00,,,0.00,WUHU216HW,2013-04-18 12:17:00,
2013-04-18 05:22:00,24.7,7.2,30.16,ESE,113,5.4,7.4,47,0.00,,,0.00,WUHU216HW,2013-04-18 12:22:00,
2013-04-18 05:27:00,24.3,6.8,30.16,East,90,2.7,6.3,47,0.00,,,0.00,WUHU216HW,2013-04-18 12:27:00,
2013-04-18 05:32:00,24.1,6.8,30.16,SSE,158,2.5,5.6,47,0.00,,,0.00,WUHU216HW,2013-04-18 12:32:00,
2013-04-18 05:37:00,23.9,6.6,30.16,SSE,158,1.8,5.8,47,0.00,,,0.00,WUHU216HW,2013-04-18 12:37:00,
2013-04-18 05:42:00,23.6,6.2,30.16,WSW,248,0.2,5.8,47,0.00,,,0.00,WUHU216HW,2013-04-18 12:42:00,
2013-04-18 05:47:00,23.2,6.0,30.16,ENE,68,0.0,2.7,47,0.00,,,0.00,WUHU216HW,2013-04-18 12:47:00,
2013-04-18 05:52:00,23.0,5.8,30.16,SW,225,0.0,0.9,47,0.00,,,0.00,WUHU216HW,2013-04-18 12:52:00,
2013-04-18 05:57:00,22.9,6.0,30.17,ENE,68,1.6,3.4,48,0.00,,,0.00,WUHU216HW,2013-04-18 12:57:00,
2013-04-18 06:02:00,22.7,5.9,30.17,ESE,113,0.9,3.4,48,0.00,,,0.00,WUHU216HW,2013-04-18 13:02:00,
2013-04-18 06:07:00,22.3,5.5,30.17,SSE,158,1.8,2.2,48,0.00,,,0.00,WUHU216HW,2013-04-18 13:07:00,
2013-04-18 06:12:00,22.3,6.0,30.17,East,90,0.0,2.2,49,0.00,,,0.00,WUHU216HW,2013-04-18 13:12:00,
2013-04-18 06:17:00,22.1,5.9,30.18,East,90,1.8,2.5,49,0.00,,,0.00,WUHU216HW,2013-04-18 13:17:00,
2013-04-18 06:22:00,22.0,5.7,30.18,East,90,1.8,2.5,49,0.00,,,0.00,WUHU216HW,2013-04-18 13:22:00,
2013-04-18 06:27:00,22.0,5.7,30.18,ESE,113,2.5,3.4,49,0.00,,,0.00,WUHU216HW,2013-04-18 13:27:00,
2013-04-18 06:32:00,22.1,5.9,30.18,ESE,113,1.8,4.3,49,0.00,,,0.00,WUHU216HW,2013-04-18 13:32:00,
2013-04-18 06:37:00,22.5,6.2,30.19,ESE,113,2.2,4.3,49,0.00,,,0.00,WUHU216HW,2013-04-18 13:37:00,
2013-04-18 06:42:00,22.7,6.4,30.19,NNE,23,3.6,4.0,49,0.00,,,0.00,WUHU216HW,2013-04-18 13:42:00,
2013-04-18 06:47:00,23.4,7.0,30.19,ENE,68,1.6,4.7,49,0.00,,,0.00,WUHU216HW,2013-04-18 13:47:00,
2013-04-18 06:52:00,24.3,7.4,30.19,ENE,68,3.6,6.5,48,0.00,,,0.00,WUHU216HW,2013-04-18 13:52:00,
2013-04-18 06:57:00,24.8,7.8,30.19,NE,45,2.7,6.5,48,0.00,,,0.00,WUHU216HW,2013-04-18 13:57:00,
2013-04-18 07:02:00,25.2,8.2,30.19,NNE,23,2.7,6.9,48,0.00,,,0.00,WUHU216HW,2013-04-18 14:02:00,
2013-04-18 07:07:00,25.6,8.0,30.19,ENE,68,4.7,6.9,47,0.00,,,0.00,WUHU216HW,2013-04-18 14:07:00,
2013-04-18 07:12:00,25.9,8.4,30.19,NE,45,6.5,6.5,47,0.00,,,0.00,WUHU216HW,2013-04-18 14:12:00,
2013-04-18 07:17:00,26.5,8.4,30.19,NE,45,5.4,6.5,46,0.00,,,0.00,WUHU216HW,2013-04-18 14:17:00,
2013-04-18 07:22:00,27.2,8.6,30.20,NNE,23,4.7,11.6,45,0.00,,,0.00,WUHU216HW,2013-04-18 14:22:00,
2013-04-18 07:27:00,27.7,8.6,30.20,NNW,338,8.3,11.6,44,0.00,,,0.00,WUHU216HW,2013-04-18 14:27:00,
2013-04-18 07:32:00,28.4,8.7,30.20,NE,45,9.2,9.8,43,0.00,,,0.00,WUHU216HW,2013-04-18 14:32:00,
2013-04-18 07:37:00,28.8,8.6,30.20,NE,45,6.5,12.1,42,0.00,,,0.00,WUHU216HW,2013-04-18 14:37:00,
2013-04-18 07:42:00,29.2,7.8,30.20,East,90,11.2,12.1,40,0.00,,,0.00,WUHU216HW,2013-04-18 14:42:00,
2013-04-18 07:47:00,29.5,8.6,30.20,NNE,23,3.6,11.9,41,0.00,,,0.00,WUHU216HW,2013-04-18 14:47:00,
2013-04-18 07:52:00,29.9,7.8,30.21,NE,45,6.3,11.2,39,0.00,,,0.00,WUHU216HW,2013-04-18 14:52:00,
2013-04-18 07:57:00,29.9,7.8,30.21,NNE,23,6.9,11.2,39,0.00,,,0.00,WUHU216HW,2013-04-18 14:57:00,
2013-04-18 08:02:00,30.4,8.4,30.21,NE,45,5.6,12.1,39,0.00,,,0.00,WUHU216HW,2013-04-18 15:02:00,
2013-04-18 08:07:00,31.0,8.2,30.21,ENE,68,11.0,12.1,38,0.00,,,0.00,WUHU216HW,2013-04-18 15:07:00,
2013-04-18 08:12:00,31.0,8.8,30.21,NE,45,3.4,12.8,39,0.00,,,0.00,WUHU216HW,2013-04-18 15:12:00,
2013-04-18 08:17:00,31.5,8.1,30.21,NNE,23,3.8,12.8,37,0.00,,,0.00,WUHU216HW,2013-04-18 15:17:00,
2013-04-18 08:22:00,32.2,8.7,30.21,NNE,23,11.0,13.4,37,0.00,,,0.00,WUHU216HW,2013-04-18 15:22:00,
2013-04-18 08:27:00,33.5,9.2,30.21,ESE,113,8.1,13.4,36,0.00,,,0.00,WUHU216HW,2013-04-18 15:27:00,
2013-04-18 08:32:00,34.0,8.5,30.21,NNE,23,5.8,14.5,34,0.00,,,0.00,WUHU216HW,2013-04-18 15:32:00,
2013-04-18 08:37:00,34.6,8.3,30.21,NNW,338,4.7,14.5,33,0.00,,,0.00,WUHU216HW,2013-04-18 15:37:00,
2013-04-18 08:42:00,34.9,8.6,30.21,NNE,23,2.0,13.2,33,0.00,,,0.00,WUHU216HW,2013-04-18 15:42:00,
2013-04-18 08:47:00,35.5,8.4,30.21,ENE,68,7.6,11.9,32,0.00,,,0.00,WUHU216HW,2013-04-18 15:47:00,
2013-04-18 08:52:00,35.3,8.2,30.21,ENE,68,3.4,12.8,32,0.00,,,0.00,WUHU216HW,2013-04-18 15:52:00,
2013-04-18 08:57:00,35.6,8.5,30.21,ENE,68,6.3,15.0,32,0.00,,,0.00,WUHU216HW,2013-04-18 15:57:00,
2013-04-18 09:02:00,36.2,7.7,30.21,NNE,23,9.4,15.0,30,0.00,,,0.00,WUHU216HW,2013-04-18 16:02:00,
2013-04-18 09:07:00,36.2,8.4,30.21,North,0,8.7,12.8,31,0.00,,,0.00,WUHU216HW,2013-04-18 16:07:00,
2013-04-18 09:12:00,36.7,8.2,30.21,NE,45,7.8,13.6,30,0.00,,,0.00,WUHU216HW,2013-04-18 16:12:00,
2013-04-18 09:17:00,37.4,8.8,30.21,ENE,68,10.5,13.6,30,0.00,,,0.00,WUHU216HW,2013-04-18 16:17:00,
2013-04-18 09:22:00,37.8,9.2,30.21,ENE,68,4.7,12.5,30,0.00,,,0.00,WUHU216HW,2013-04-18 16:22:00,
2013-04-18 09:27:00,38.0,7.6,30.21,ENE,68,3.8,13.0,28,0.00,,,0.00,WUHU216HW,2013-04-18 16:27:00,
2013-04-18 09:32:00,37.6,7.2,30.21,ENE,68,6.0,13.0,28,0.00,,,0.00,WUHU216HW,2013-04-18 16:32:00,
2013-04-18 09:37:00,37.6,8.1,30.22,NNE,23,3.4,12.3,29,0.00,,,0.00,WUHU216HW,2013-04-18 16:37:00,
2013-04-18 09:42:00,37.8,7.4,30.22,North,0,8.1,12.1,28,0.00,,,0.00,WUHU216HW,2013-04-18 16:42:00,
2013-04-18 09:47:00,39.8,9.1,30.22,NNE,23,7.8,11.6,28,0.00,,,0.00,WUHU216HW,2013-04-18 16:47:00,
2013-04-18 09:52:00,40.3,6.9,30.22,NE,45,8.9,12.1,25,0.00,,,0.00,WUHU216HW,2013-04-18 16:52:00,
2013-04-18 09:57:00,39.6,8.1,30.22,NW,315,9.2,12.1,27,0.00,,,0.00,WUHU216HW,2013-04-18 16:57:00,
2013-04-18 10:02:00,39.8,6.4,30.22,NNE,23,7.6,13.4,25,0.00,,,0.00,WUHU216HW,2013-04-18 17:02:00,
2013-04-18 10:07:00,40.7,7.2,30.23,North,0,6.9,15.9,25,0.00,,,0.00,WUHU216HW,2013-04-18 17:07:00,
2013-04-18 10:12:00,40.3,6.0,30.23,North,0,11.4,15.9,24,0.00,,,0.00,WUHU216HW,2013-04-18 17:12:00,
2013-04-18 10:17:00,40.9,6.5,30.23,NE,45,6.9,12.8,24,0.00,,,0.00,WUHU216HW,2013-04-18 17:17:00,
2013-04-18 10:22:00,41.6,5.3,30.23,North,0,5.8,15.0,22,0.00,,,0.00,WUHU216HW,2013-04-18 17:22:00,
2013-04-18 10:27:00,41.9,5.6,30.23,North,0,14.8,15.0,22,0.00,,,0.00,WUHU216HW,2013-04-18 17:27:00,
2013-04-18 10:32:00,42.3,5.9,30.23,NE,45,7.2,14.8,22,0.00,,,0.00,WUHU216HW,2013-04-18 17:32:00,
2013-04-18 10:37:00,42.1,5.8,30.23,ENE,68,9.2,14.8,22,0.00,,,0.00,WUHU216HW,2013-04-18 17:37:00,
2013-04-18 10:42:00,42.3,6.8,30.23,North,0,5.1,14.1,23,0.00,,,0.00,WUHU216HW,2013-04-18 17:42:00,
2013-04-18 10:47:00,43.6,7.8,30.22,NNE,23,9.2,13.6,23,0.00,,,0.00,WUHU216HW,2013-04-18 17:47:00,
2013-04-18 10:52:00,44.6,7.9,30.22,NW,315,8.1,13.6,22,0.00,,,0.00,WUHU216HW,2013-04-18 17:52:00,
2013-04-18 10:57:00,44.8,7.2,30.22,North,0,4.9,11.2,21,0.00,,,0.00,WUHU216HW,2013-04-18 17:57:00,
2013-04-18 11:02:00,44.3,6.7,30.23,NE,45,9.8,14.5,21,0.00,,,0.00,WUHU216HW,2013-04-18 18:02:00,
2013-04-18 11:07:00,44.8,7.2,30.23,ENE,68,6.5,16.3,21,0.00,,,0.00,WUHU216HW,2013-04-18 18:07:00,
2013-04-18 11:12:00,45.7,7.0,30.22,NE,45,12.5,16.3,20,0.00,,,0.00,WUHU216HW,2013-04-18 18:12:00,
2013-04-18 11:17:00,45.5,7.7,30.23,ENE,68,6.3,14.8,21,0.00,,,0.00,WUHU216HW,2013-04-18 18:17:00,
2013-04-18 11:22:00,45.7,7.9,30.23,NE,45,8.9,14.8,21,0.00,,,0.00,WUHU216HW,2013-04-18 18:22:00,
2013-04-18 11:27:00,45.7,5.5,30.23,NW,315,8.7,11.6,19,0.00,,,0.00,WUHU216HW,2013-04-18 18:27:00,
2013-04-18 11:32:00,45.2,7.5,30.23,NNE,23,6.9,11.6,21,0.00,,,0.00,WUHU216HW,2013-04-18 18:32:00,
2013-04-18 11:37:00,44.8,7.2,30.23,North,0,8.7,11.2,21,0.00,,,0.00,WUHU216HW,2013-04-18 18:37:00,
2013-04-18 11:42:00,43.9,5.5,30.22,SE,135,6.0,14.8,20,0.00,,,0.00,WUHU216HW,2013-04-18 18:42:00,
2013-04-18 11:47:00,43.7,6.2,30.23,NNE,23,9.8,14.8,21,0.00,,,0.00,WUHU216HW,2013-04-18 18:47:00,
2013-04-18 11:52:00,45.0,6.4,30.23,North,0,8.3,14.5,20,0.00,,,0.00,WUHU216HW,2013-04-18 18:52:00,
2013-04-18 11:57:00,44.6,7.0,30.23,North,0,9.2,17.7,21,0.00,,,0.00,WUHU216HW,2013-04-18 18:57:00,
2013-04-18 12:02:00,45.2,6.6,30.23,NNE,23,6.9,17.7,20,0.00,,,0.00,WUHU216HW,2013-04-18 19:02:00,
2013-04-18 12:07:00,46.4,8.5,30.23,NNW,338,8.5,14.1,21,0.00,,,0.00,WUHU216HW,2013-04-18 19:07:00,
2013-04-18 12:12:00,46.6,7.8,30.22,ESE,113,9.6,14.1,20,0.00,,,0.00,WUHU216HW,2013-04-18 19:12:00,
2013-04-18 12:17:00,45.4,5.2,30.22,NE,45,4.3,15.0,19,0.00,,,0.00,WUHU216HW,2013-04-18 19:17:00,
2013-04-18 12:22:00,45.7,7.0,30.23,NW,315,10.5,15.0,20,0.00,,,0.00,WUHU216HW,2013-04-18 19:22:00,
2013-04-18 12:27:00,46.4,7.6,30.23,North,0,11.0,14.1,20,0.00,,,0.00,WUHU216HW,2013-04-18 19:27:00,
2013-04-18 12:32:00,47.0,5.0,30.23,NW,315,8.3,14.1,18,0.00,,,0.00,WUHU216HW,2013-04-18 19:32:00,
2013-04-18 12:37:00,46.8,4.9,30.23,NNE,23,8.3,15.4,18,0.00,,,0.00,WUHU216HW,2013-04-18 19:37:00,
2013-04-18 12:42:00,46.3,5.9,30.22,North,0,13.2,15.4,19,0.00,,,0.00,WUHU216HW,2013-04-18 19:42:00,
2013-04-18 12:47:00,47.2,6.7,30.22,NNW,338,4.3,13.6,19,0.00,,,0.00,WUHU216HW,2013-04-18 19:47:00,
2013-04-18 12:52:00,47.0,3.6,30.22,NNE,23,4.5,17.7,17,0.00,,,0.00,WUHU216HW,2013-04-18 19:52:00,
2013-04-18 12:57:00,46.6,1.8,30.22,North,0,11.2,17.7,16,0.00,,,0.00,WUHU216HW,2013-04-18 19:57:00,
2013-04-18 13:02:00,46.6,3.2,30.22,NNE,23,8.9,15.7,17,0.00,,,0.00,WUHU216HW,2013-04-18 20:02:00,
2013-04-18 13:07:00,46.4,3.2,30.22,NNE,23,11.2,15.0,17,0.00,,,0.00,WUHU216HW,2013-04-18 20:07:00,
2013-04-18 13:12:00,46.1,1.4,30.22,NE,45,11.4,17.2,16,0.00,,,0.00,WUHU216HW,2013-04-18 20:12:00,
2013-04-18 13:17:00,46.6,3.2,30.22,ENE,68,8.5,17.2,17,0.00,,,0.00,WUHU216HW,2013-04-18 20:17:00,
2013-04-18 13:22:00,46.4,3.2,30.22,ENE,68,6.3,15.4,17,0.00,,,0.00,WUHU216HW,2013-04-18 20:22:00,
2013-04-18 13:27:00,46.1,2.9,30.22,NE,45,9.8,17.0,17,0.00,,,0.00,WUHU216HW,2013-04-18 20:27:00,
2013-04-18 13:32:00,46.3,4.5,30.22,NNE,23,8.7,17.0,18,0.00,,,0.00,WUHU216HW,2013-04-18 20:32:00,
2013-04-18 13:37:00,47.2,5.2,30.21,NNE,23,11.6,12.3,18,0.00,,,0.00,WUHU216HW,2013-04-18 20:37:00,
2013-04-18 13:42:00,47.9,4.3,30.22,NNW,338,8.7,17.0,17,0.00,,,0.00,WUHU216HW,2013-04-18 20:42:00,
2013-04-18 13:47:00,48.1,4.4,30.21,NW,315,6.5,17.0,17,0.00,,,0.00,WUHU216HW,2013-04-18 20:47:00,
2013-04-18 13:52:00,48.2,3.1,30.21,ENE,68,8.3,14.8,16,0.00,,,0.00,WUHU216HW,2013-04-18 20:52:00,
2013-04-18 13:57:00,48.2,3.1,30.22,NE,45,7.8,14.8,16,0.00,,,0.00,WUHU216HW,2013-04-18 20:57:00,
2013-04-18 14:02:00,47.3,2.3,30.22,ENE,68,9.8,14.3,16,0.00,,,0.00,WUHU216HW,2013-04-18 21:02:00,
2013-04-18 14:07:00,47.7,2.7,30.22,NNW,338,13.2,13.6,16,0.00,,,0.00,WUHU216HW,2013-04-18 21:07:00,
2013-04-18 14:12:00,48.2,3.1,30.22,NNE,23,16.1,16.1,16,0.00,,,0.00,WUHU216HW,2013-04-18 21:12:00,
2013-04-18 14:17:00,48.4,0.3,30.22,NNE,23,11.9,16.1,14,0.00,,,0.00,WUHU216HW,2013-04-18 21:17:00,
2013-04-18 14:22:00,48.2,1.6,30.22,NE,45,7.6,16.1,15,0.00,,,0.00,WUHU216HW,2013-04-18 21:22:00,
2013-04-18 14:27:00,48.2,1.6,30.22,NNE,23,13.2,13.2,15,0.00,,,0.00,WUHU216HW,2013-04-18 21:27:00,
2013-04-18 14:32:00,47.9,1.4,30.22,NE,45,6.0,13.2,15,0.00,,,0.00,WUHU216HW,2013-04-18 21:32:00,
2013-04-18 14:37:00,48.4,1.8,30.22,NNE,23,7.6,13.2,15,0.00,,,0.00,WUHU216HW,2013-04-18 21:37:00,
2013-04-18 14:42:00,49.1,0.8,30.22,NNE,23,8.7,11.4,14,0.00,,,0.00,WUHU216HW,2013-04-18 21:42:00,
2013-04-18 14:47:00,49.3,1.0,30.22,ENE,68,6.9,13.2,14,0.00,,,0.00,WUHU216HW,2013-04-18 21:47:00,
2013-04-18 14:52:00,48.2,1.6,30.22,NNE,23,7.6,13.2,15,0.00,,,0.00,WUHU216HW,2013-04-18 21:52:00,
2013-04-18 14:57:00,48.4,1.8,30.22,North,0,7.4,12.5,15,0.00,,,0.00,WUHU216HW,2013-04-18 21:57:00,
2013-04-18 15:02:00,49.0,2.2,30.22,NNE,23,12.8,12.8,15,0.00,,,0.00,WUHU216HW,2013-04-18 22:02:00,
2013-04-18 15:07:00,49.0,2.2,30.22,NNE,23,7.2,13.2,15,0.00,,,0.00,WUHU216HW,2013-04-18 22:07:00,
2013-04-18 15:12:00,49.0,2.2,30.22,NNE,23,2.5,13.2,15,0.00,,,0.00,WUHU216HW,2013-04-18 22:12:00,
2013-04-18 15:17:00,48.8,2.1,30.22,North,0,5.6,14.1,15,0.00,,,0.00,WUHU216HW,2013-04-18 22:17:00,
2013-04-18 15:22:00,48.2,1.6,30.22,NNE,23,4.5,14.1,15,0.00,,,0.00,WUHU216HW,2013-04-18 22:22:00,
2013-04-18 15:27:00,48.6,1.9,30.22,NE,45,9.8,15.9,15,0.00,,,0.00,WUHU216HW,2013-04-18 22:27:00,
2013-04-18 15:32:00,48.1,1.4,30.22,North,0,8.9,15.9,15,0.00,,,0.00,WUHU216HW,2013-04-18 22:32:00,
2013-04-18 15:37:00,48.6,0.5,30.22,NE,45,8.5,13.4,14,0.00,,,0.00,WUHU216HW,2013-04-18 22:37:00,
2013-04-18 15:42:00,49.0,2.2,30.22,NNW,338,11.4,13.2,15,0.00,,,0.00,WUHU216HW,2013-04-18 22:42:00,
2013-04-18 15:47:00,48.8,0.5,30.22,North,0,6.3,12.3,14,0.00,,,0.00,WUHU216HW,2013-04-18 22:47:00,
2013-04-18 15:52:00,48.2,1.6,30.22,NNE,23,6.5,12.3,15,0.00,,,0.00,WUHU216HW,2013-04-18 22:52:00,
2013-04-18 15:57:00,48.4,1.8,30.22,NE,45,9.8,12.1,15,0.00,,,0.00,WUHU216HW,2013-04-18 22:57:00,
2013-04-18 16:02:00,48.1,0.0,30.22,NNE,23,8.9,13.4,14,0.00,,,0.00,WUHU216HW,2013-04-18 23:02:00,
2013-04-18 16:07:00,47.9,1.4,30.22,NE,45,7.4,14.5,15,0.00,,,0.00,WUHU216HW,2013-04-18 23:07:00,
2013-04-18 16:12:00,48.1,1.4,30.23,NE,45,9.4,14.5,15,0.00,,,0.00,WUHU216HW,2013-04-18 23:12:00,
2013-04-18 16:17:00,48.2,1.6,30.23,NE,45,4.7,12.3,15,0.00,,,0.00,WUHU216HW,2013-04-18 23:17:00,
2013-04-18 16:22:00,48.1,1.4,30.23,North,0,9.6,15.7,15,0.00,,,0.00,WUHU216HW,2013-04-18 23:22:00,
2013-04-18 16:27:00,48.6,1.9,30.23,ENE,68,4.7,15.7,15,0.00,,,0.00,WUHU216HW,2013-04-18 23:27:00,
2013-04-18 16:32:00,48.6,1.9,30.24,NNE,23,6.5,14.1,15,0.00,,,0.00,WUHU216HW,2013-04-18 23:32:00,
2013-04-18 16:37:00,48.6,1.9,30.23,NNW,338,7.4,14.1,15,0.00,,,0.00,WUHU216HW,2013-04-18 23:37:00,
2013-04-18 16:42:00,48.4,0.3,30.23,North,0,12.3,13.4,14,0.00,,,0.00,WUHU216HW,2013-04-18 23:42:00,
2013-04-18 16:47:00,48.1,1.4,30.24,NNE,23,7.6,13.4,15,0.00,,,0.00,WUHU216HW,2013-04-18 23:47:00,
2013-04-18 16:52:00,47.7,1.2,30.24,NW,315,6.9,13.4,15,0.00,,,0.00,WUHU216HW,2013-04-18 23:52:00,
2013-04-18 16:57:00,47.7,-0.3,30.24,NE,45,9.2,13.4,14,0.00,,,0.00,WUHU216HW,2013-04-18 23:57:00,
2013-04-18 17:02:00,47.5,-0.4,30.24,NE,45,6.9,11.9,14,0.00,,,0.00,WUHU216HW,2013-04-19 00:02:00,
2013-04-18 17:07:00,47.2,-0.7,30.24,NE,45,8.7,13.2,14,0.00,,,0.00,WUHU216HW,2013-04-19 00:07:00,
2013-04-18 17:12:00,47.0,-0.9,30.24,NNE,23,8.7,15.7,14,0.00,,,0.00,WUHU216HW,2013-04-19 00:12:00,
2013-04-18 17:17:00,46.8,0.5,30.24,NE,45,6.9,15.7,15,0.00,,,0.00,WUHU216HW,2013-04-19 00:17:00,
2013-04-18 17:22:00,46.4,-1.2,30.24,NNW,338,9.4,14.5,14,0.00,,,0.00,WUHU216HW,2013-04-19 00:22:00,
2013-04-18 17:27:00,46.3,-1.4,30.24,ENE,68,7.4,11.6,14,0.00,,,0.00,WUHU216HW,2013-04-19 00:27:00,
2013-04-18 17:32:00,46.3,0.0,30.24,NNE,23,4.9,11.6,15,0.00,,,0.00,WUHU216HW,2013-04-19 00:32:00,
2013-04-18 17:37:00,46.1,-0.1,30.24,North,0,6.0,10.1,15,0.00,,,0.00,WUHU216HW,2013-04-19 00:37:00,
2013-04-18 17:42:00,46.1,-0.1,30.25,NNE,23,6.9,11.2,15,0.00,,,0.00,WUHU216HW,2013-04-19 00:42:00,
2013-04-18 17:47:00,45.7,-0.3,30.25,NNE,23,6.5,11.2,15,0.00,,,0.00,WUHU216HW,2013-04-19 00:47:00,
2013-04-18 17:52:00,45.7,-0.3,30.25,NNE,23,7.6,11.0,15,0.00,,,0.00,WUHU216HW,2013-04-19 00:52:00,
2013-04-18 17:57:00,45.4,-0.7,30.25,NNE,23,4.3,10.1,15,0.00,,,0.00,WUHU216HW,2013-04-19 00:57:00,
2013-04-18 18:02:00,45.2,0.6,30.24,NE,45,6.9,9.8,16,0.00,,,0.00,WUHU216HW,2013-04-19 01:02:00,
2013-04-18 18:07:00,45.2,0.6,30.25,North,0,4.9,10.1,16,0.00,,,0.00,WUHU216HW,2013-04-19 01:07:00,
2013-04-18 18:12:00,44.8,0.4,30.25,NE,45,4.9,10.7,16,0.00,,,0.00,WUHU216HW,2013-04-19 01:12:00,
2013-04-18 18:17:00,44.8,0.4,30.25,NNW,338,4.0,11.4,16,0.00,,,0.00,WUHU216HW,2013-04-19 01:17:00,
2013-04-18 18:22:00,44.5,0.1,30.25,NNE,23,5.1,11.4,16,0.00,,,0.00,WUHU216HW,2013-04-19 01:22:00,
2013-04-18 18:27:00,44.3,-0.1,30.26,NE,45,6.9,8.9,16,0.00,,,0.00,WUHU216HW,2013-04-19 01:27:00,
2013-04-18 18:32:00,43.9,1.1,30.26,ENE,68,3.8,7.6,17,0.00,,,0.00,WUHU216HW,2013-04-19 01:32:00,
2013-04-18 18:37:00,43.6,0.7,30.26,NNE,23,3.4,7.6,17,0.00,,,0.00,WUHU216HW,2013-04-19 01:37:00,
2013-04-18 18:42:00,43.4,0.6,30.26,ENE,68,4.0,7.6,17,0.00,,,0.00,WUHU216HW,2013-04-19 01:42:00,
2013-04-18 18:47:00,43.0,1.7,30.26,North,0,4.0,7.6,18,0.00,,,0.00,WUHU216HW,2013-04-19 01:47:00,
2013-04-18 18:52:00,42.7,1.4,30.26,North,0,3.4,5.6,18,0.00,,,0.00,WUHU216HW,2013-04-19 01:52:00,
2013-04-18 18:57:00,42.3,1.2,30.26,ENE,68,1.6,5.4,18,0.00,,,0.00,WUHU216HW,2013-04-19 01:57:00,
2013-04-18 19:02:00,41.9,0.9,30.26,East,90,1.8,4.0,18,0.00,,,0.00,WUHU216HW,2013-04-19 02:02:00,
2013-04-18 19:07:00,41.8,2.2,30.26,NNE,23,0.2,3.6,19,0.00,,,0.00,WUHU216HW,2013-04-19 02:07:00,
2013-04-18 19:12:00,41.4,3.3,30.26,NE,45,0.4,3.6,20,0.00,,,0.00,WUHU216HW,2013-04-19 02:12:00,
2013-04-18 19:17:00,41.0,3.1,30.27,ENE,68,0.2,2.9,20,0.00,,,0.00,WUHU216HW,2013-04-19 02:17:00,
2013-04-18 19:22:00,40.7,2.7,30.27,SE,135,1.8,2.5,20,0.00,,,0.00,WUHU216HW,2013-04-19 02:22:00,
2013-04-18 19:27:00,40.3,3.3,30.27,South,180,1.8,2.7,21,0.00,,,0.00,WUHU216HW,2013-04-19 02:27:00,
2013-04-18 19:32:00,40.0,3.0,30.27,SSE,158,2.2,2.7,21,0.00,,,0.00,WUHU216HW,2013-04-19 02:32:00,
2013-04-18 19:37:00,39.2,2.3,30.27,South,180,1.6,2.5,21,0.00,,,0.00,WUHU216HW,2013-04-19 02:37:00,
2013-04-18 19:42:00,38.7,1.9,30.27,South,180,0.0,2.5,21,0.00,,,0.00,WUHU216HW,2013-04-19 02:42:00,
2013-04-18 19:47:00,38.2,2.3,30.28,South,180,0.0,1.8,22,0.00,,,0.00,WUHU216HW,2013-04-19 02:47:00,
2013-04-18 19:52:00,37.6,1.9,30.28,South,180,1.1,1.6,22,0.00,,,0.00,WUHU216HW,2013-04-19 02:52:00,
2013-04-18 19:57:00,36.9,1.4,30.28,South,180,1.8,1.8,22,0.00,,,0.00,WUHU216HW,2013-04-19 02:57:00,
2013-04-18 20:02:00,36.4,1.7,30.29,SSW,203,1.6,2.0,23,0.00,,,0.00,WUHU216HW,2013-04-19 03:02:00,
2013-04-18 20:07:00,35.8,1.3,30.29,SSW,203,0.0,2.0,23,0.00,,,0.00,WUHU216HW,2013-04-19 03:07:00,
2013-04-18 20:12:00,35.3,0.8,30.29,South,180,0.4,1.6,23,0.00,,,0.00,WUHU216HW,2013-04-19 03:12:00,
2013-04-18 20:17:00,34.9,1.5,30.29,South,180,0.7,1.1,24,0.00,,,0.00,WUHU216HW,2013-04-19 03:17:00,
2013-04-18 20:22:00,34.4,0.9,30.29,South,180,1.1,1.6,24,0.00,,,0.00,WUHU216HW,2013-04-19 03:22:00,
2013-04-18 20:27:00,33.8,0.5,30.29,South,180,0.4,1.6,24,0.00,,,0.00,WUHU216HW,2013-04-19 03:27:00,
2013-04-18 20:32:00,33.5,0.2,30.29,South,180,0.9,1.3,24,0.00,,,0.00,WUHU216HW,2013-04-19 03:32:00,
2013-04-18 20:37:00,33.1,-0.2,30.29,South,180,0.9,1.6,24,0.00,,,0.00,WUHU216HW,2013-04-19 03:37:00,
2013-04-18 20:42:00,32.8,-0.4,30.30,SSW,203,0.0,1.6,24,0.00,,,0.00,WUHU216HW,2013-04-19 03:42:00,
2013-04-18 20:47:00,32.2,-0.9,30.30,South,180,1.8,1.8,24,0.00,,,0.00,WUHU216HW,2013-04-19 03:47:00,
2013-04-18 20:52:00,32.0,-1.1,30.30,South,180,1.1,2.5,24,0.00,,,0.00,WUHU216HW,2013-04-19 03:52:00,
2013-04-18 20:57:00,31.5,0.2,30.30,South,180,0.4,2.5,26,0.00,,,0.00,WUHU216HW,2013-04-19 03:57:00,
2013-04-18 21:01:00,31.3,0.0,30.30,SW,225,0.7,2.0,26,0.00,,,0.00,WUHU216HW,2013-04-19 04:01:00,
2013-04-18 21:07:00,31.0,-0.3,30.30,South,180,1.6,1.6,26,0.00,,,0.00,WUHU216HW,2013-04-19 04:07:00,
2013-04-18 21:11:00,30.6,-0.6,30.30,South,180,1.6,3.1,26,0.00,,,0.00,WUHU216HW,2013-04-19 04:11:00,
2013-04-18 21:16:00,30.4,0.1,30.30,SSE,158,1.6,3.1,27,0.00,,,0.00,WUHU216HW,2013-04-19 04:16:00,
2013-04-18 21:21:00,30.2,-0.1,30.30,South,180,0.4,2.0,27,0.00,,,0.00,WUHU216HW,2013-04-19 04:21:00,
2013-04-18 21:26:00,29.9,-0.3,30.30,SSE,158,0.9,1.8,27,0.00,,,0.00,WUHU216HW,2013-04-19 04:26:00,
2013-04-18 21:31:00,29.7,-0.5,30.30,South,180,1.1,1.8,27,0.00,,,0.00,WUHU216HW,2013-04-19 04:31:00,
2013-04-18 21:36:00,29.3,-0.9,30.30,South,180,0.7,1.8,27,0.00,,,0.00,WUHU216HW,2013-04-19 04:36:00,
2013-04-18 21:41:00,29.0,-0.4,30.30,SSE,158,1.8,2.5,28,0.00,,,0.00,WUHU216HW,2013-04-19 04:41:00,
2013-04-18 21:46:00,28.6,-0.6,30.30,SSE,158,0.4,2.5,28,0.00,,,0.00,WUHU216HW,2013-04-19 04:46:00,
2013-04-18 21:51:00,28.4,-0.8,30.30,South,180,0.0,1.8,28,0.00,,,0.00,WUHU216HW,2013-04-19 04:51:00,
2013-04-18 21:56:00,28.3,-1.0,30.30,South,180,2.0,2.5,28,0.00,,,0.00,WUHU216HW,2013-04-19 04:56:00,
2013-04-18 22:01:00,27.9,-1.2,30.30,SSE,158,0.4,2.5,28,0.00,,,0.00,WUHU216HW,2013-04-19 05:01:00,
2013-04-18 22:06:00,27.7,-0.6,30.31,South,180,1.3,2.0,29,0.00,,,0.00,WUHU216HW,2013-04-19 05:06:00,
2013-04-18 22:11:00,27.4,-0.9,30.30,SSW,203,0.9,1.3,29,0.00,,,0.00,WUHU216HW,2013-04-19 05:11:00,
2013-04-18 22:16:00,27.0,-1.3,30.30,SSE,158,0.0,1.3,29,0.00,,,0.00,WUHU216HW,2013-04-19 05:16:00,
2013-04-18 22:21:00,26.8,-1.3,30.30,South,180,1.6,2.2,29,0.00,,,0.00,WUHU216HW,2013-04-19 05:21:00,
2013-04-18 22:26:00,26.6,-0.7,30.30,SSE,158,0.0,2.2,30,0.00,,,0.00,WUHU216HW,2013-04-19 05:26:00,
2013-04-18 22:31:00,26.3,-1.0,30.30,SSW,203,0.9,1.6,30,0.00,,,0.00,WUHU216HW,2013-04-19 05:31:00,
2013-04-18 22:36:00,26.3,-1.0,30.31,South,180,0.0,1.1,30,0.00,,,0.00,WUHU216HW,2013-04-19 05:36:00,
2013-04-18 22:41:00,25.9,-1.2,30.31,South,180,0.0,0.9,30,0.00,,,0.00,WUHU216HW,2013-04-19 05:41:00,
2013-04-18 22:46:00,25.7,-1.4,30.31,SSE,158,1.1,1.3,30,0.00,,,0.00,WUHU216HW,2013-04-19 05:46:00,
2013-04-18 22:51:00,25.6,-1.0,30.31,SSE,158,2.5,2.5,31,0.00,,,0.00,WUHU216HW,2013-04-19 05:51:00,
2013-04-18 22:56:00,25.2,-1.3,30.31,SE,135,1.1,2.5,31,0.00,,,0.00,WUHU216HW,2013-04-19 05:56:00,
2013-04-18 23:01:00,25.0,-1.4,30.31,SE,135,0.2,2.2,31,0.00,,,0.00,WUHU216HW,2013-04-19 06:01:00,
2013-04-18 23:06:00,24.7,-1.7,30.31,SSW,203,0.0,1.1,31,0.00,,,0.00,WUHU216HW,2013-04-19 06:06:00,
2013-04-18 23:11:00,24.5,-1.9,30.31,South,180,0.7,0.7,31,0.00,,,0.00,WUHU216HW,2013-04-19 06:11:00,
2013-04-18 23:16:00,24.1,-1.6,30.31,South,180,0.4,2.5,32,0.00,,,0.00,WUHU216HW,2013-04-19 06:16:00,
2013-04-18 23:21:00,24.1,-1.6,30.31,South,180,0.0,2.5,32,0.00,,,0.00,WUHU216HW,2013-04-19 06:21:00,
2013-04-18 23:26:00,23.8,-1.9,30.31,SE,135,0.0,1.1,32,0.00,,,0.00,WUHU216HW,2013-04-19 06:26:00,
2013-04-18 23:31:00,23.6,-2.1,30.31,South,180,1.1,1.3,32,0.00,,,0.00,WUHU216HW,2013-04-19 06:31:00,
2013-04-18 23:36:00,23.4,-2.2,30.31,South,180,0.7,1.3,32,0.00,,,0.00,WUHU216HW,2013-04-19 06:36:00,
2013-04-18 23:41:00,23.4,-1.6,30.31,SSE,158,0.4,1.1,33,0.00,,,0.00,WUHU216HW,2013-04-19 06:41:00,
2013-04-18 23:46:00,23.2,-2.4,30.31,SSW,203,0.4,1.1,32,0.00,,,0.00,WUHU216HW,2013-04-19 06:46:00,
2013-04-18 23:51:00,22.9,-2.7,30.31,SSE,158,2.2,2.2,32,0.00,,,0.00,WUHU216HW,2013-04-19 06:51:00,
2013-04-18 23:56:00,22.7,-2.9,30.30,South,180,2.0,2.2,32,0.00,,,0.00,WUHU216HW,2013-04-19 06:56:00,